North Bay Airport
CYYB : now visible

Airfield :











YOU CAN JOIN US ON...

 
LOGIN :

Register | Disclaimer

   EN    FR    IT 

 









Legend :    VFR   Marginal VFR   IFR   Intensive IFR   Very Intensive IFR
Visi :
Ceiling :
>= 8 km
>= 3000ft
5 to 8 km
1000 to 3000 ft
1500m to 5 km
500 to 1000 ft
800 to 1500m
200 to 500 ft
< 800m
< 200 ft
Symbols :   Thunderstorms  Fog  Heavy snow  Heavy precipitations  Wind > 20 kt






- Airport Elevation : 1215 ft
- IATA code : YYB


CYYB - North Bay

CURRENT METAR :
  • 232100Z 23005KT 25SM FEW045 24/13 A3013 RMK CU2 WND L/V WND ESTD SLP207 DENSITY ALT 2300FT

EXPIRED METARs :
  • 232000Z 23005KT 30SM SCT045 24/12 A3014 RMK CU3 WND ESTD SLP211 DENSITY ALT 2300FT
  • 231900Z 18005KT 30SM SCT045 23/13 A3016 RMK CU4 WND ESTD SLP218 DENSITY ALT 2200FT

TAF TAF CYYB
Valid from the 23 at 20:00 until the 24 at 08:00 UTC


231938Z 2320/2408 18010KT P6SM SCT060
FM240000 VRB03KT P6SM FEW060
PROB30 2406/2408 1SM BR RMK NXT FCST BY 240200Z
CZYZ FIR / North America



MET'MAP, your aeronautical weather chart ! - Copyright ORBIFLY December 2007 - Disclaimer

ORBIFLY MET'MAP TEAM :

Programming & Development : Alexandra Zaïnal
Concept & original design : Baudouin d'Aumeries
Assistance for programming : Marc-Olivier Méhu
Technical & hardware support : Manuel Goepfert

Contact : metmap@orbifly.com




SOURCES & CREDITS :

   NOAA       Earth
Advisory